createdAt,value
2018-02-15T00:00:47.420Z,0.00
2018-02-15T00:01:47.351Z,0.00
2018-02-15T00:02:47.303Z,0.00
2018-02-15T00:03:47.215Z,0.00
2018-02-15T00:05:08.149Z,0.00
2018-02-15T00:05:47.097Z,0.00
2018-02-15T00:06:47.044Z,0.00
2018-02-15T00:07:46.978Z,0.00
2018-02-15T00:08:46.936Z,0.00
2018-02-15T00:09:46.890Z,0.00
2018-02-15T00:11:07.793Z,0.00
2018-02-15T00:11:46.741Z,0.00
2018-02-15T00:12:46.669Z,0.00
2018-02-15T00:13:46.608Z,0.00
2018-02-15T00:14:46.547Z,0.00
2018-02-15T00:15:46.487Z,0.00
2018-02-15T00:17:07.418Z,0.00
2018-02-15T00:17:46.362Z,0.00
2018-02-15T00:18:46.297Z,0.00
2018-02-15T00:19:46.239Z,0.00
2018-02-15T00:20:46.187Z,0.00
2018-02-15T00:21:46.136Z,0.00
2018-02-15T00:23:07.052Z,0.00
2018-02-15T00:23:46.028Z,0.00
2018-02-15T00:24:45.944Z,0.00
2018-02-15T00:25:45.865Z,0.00
2018-02-15T00:26:45.798Z,0.00
2018-02-15T00:27:45.744Z,0.00
2018-02-15T00:29:06.681Z,0.00
2018-02-15T00:29:45.620Z,0.00
2018-02-15T00:30:45.555Z,0.00
2018-02-15T00:31:45.510Z,0.00
2018-02-15T00:32:45.441Z,0.00
2018-02-15T00:33:45.385Z,0.00
2018-02-15T00:35:06.309Z,0.00
2018-02-15T00:35:45.260Z,0.00
2018-02-15T00:36:45.185Z,0.00
2018-02-15T00:37:45.127Z,0.00
2018-02-15T00:38:45.069Z,0.00
2018-02-15T00:39:44.999Z,0.00
2018-02-15T00:41:05.935Z,0.00
2018-02-15T00:41:44.883Z,0.00
2018-02-15T00:42:44.814Z,0.00
2018-02-15T00:43:44.757Z,0.00
2018-02-15T00:44:44.701Z,0.00
2018-02-15T00:45:44.657Z,0.00
2018-02-15T00:47:05.573Z,0.00
2018-02-15T00:47:44.512Z,0.00
2018-02-15T00:48:44.443Z,0.00
2018-02-15T00:49:44.395Z,0.00
2018-02-15T00:50:44.329Z,0.00
2018-02-15T00:51:44.259Z,0.00
2018-02-15T00:53:05.198Z,0.00
2018-02-15T00:53:44.156Z,0.00
2018-02-15T00:54:44.079Z,0.00
2018-02-15T00:55:44.019Z,0.00
2018-02-15T00:56:43.959Z,0.00
2018-02-15T00:57:43.891Z,0.00
2018-02-15T00:59:04.827Z,0.00
2018-02-15T00:59:43.773Z,0.00
2018-02-15T01:00:43.713Z,0.00
2018-02-15T01:01:43.648Z,0.00
2018-02-15T01:02:43.587Z,0.00
2018-02-15T01:03:43.551Z,0.00
2018-02-15T01:05:04.456Z,0.00
2018-02-15T01:05:43.402Z,0.00
2018-02-15T01:06:43.334Z,0.00
2018-02-15T01:07:43.280Z,0.00
2018-02-15T01:08:43.217Z,0.00
2018-02-15T01:09:43.151Z,0.00
2018-02-15T01:11:04.089Z,0.00
2018-02-15T01:11:43.025Z,0.00
2018-02-15T01:12:42.966Z,0.00
2018-02-15T01:13:42.908Z,0.00
2018-02-15T01:14:42.845Z,0.00
2018-02-15T01:15:42.795Z,0.00
2018-02-15T01:17:03.724Z,0.00
2018-02-15T01:17:42.663Z,0.00
2018-02-15T01:18:42.596Z,0.00
2018-02-15T01:19:42.543Z,0.00
2018-02-15T01:20:42.496Z,0.00
2018-02-15T01:21:42.439Z,0.00
2018-02-15T01:23:03.348Z,0.00
2018-02-15T01:23:42.289Z,0.00
2018-02-15T01:24:42.225Z,0.00
2018-02-15T01:25:42.168Z,0.00
2018-02-15T01:26:42.098Z,0.00
2018-02-15T01:27:42.052Z,0.00
2018-02-15T01:29:02.980Z,0.00
2018-02-15T01:29:41.919Z,0.00
2018-02-15T01:30:41.872Z,0.00
2018-02-15T01:31:41.798Z,0.00
2018-02-15T01:32:41.748Z,0.00
2018-02-15T01:33:41.682Z,0.00
2018-02-15T01:35:02.595Z,0.00
2018-02-15T01:35:41.545Z,0.00
2018-02-15T01:36:41.498Z,0.00
2018-02-15T01:37:41.428Z,0.00
2018-02-15T01:38:41.377Z,0.00
2018-02-15T01:39:41.308Z,0.00
2018-02-15T01:41:02.236Z,0.00
2018-02-15T01:41:41.194Z,0.00
2018-02-15T01:42:41.124Z,0.00
2018-02-15T01:43:41.068Z,0.00
2018-02-15T01:44:40.992Z,0.00
2018-02-15T01:45:40.943Z,0.00
2018-02-15T01:47:01.876Z,0.00
2018-02-15T01:47:40.807Z,0.00
2018-02-15T01:48:40.737Z,0.00
2018-02-15T01:49:40.690Z,0.00
2018-02-15T01:50:40.634Z,0.00
2018-02-15T01:51:40.566Z,0.00
2018-02-15T01:53:01.491Z,0.00
2018-02-15T01:53:40.440Z,0.00
2018-02-15T01:54:40.368Z,0.00
2018-02-15T01:55:40.336Z,0.00
2018-02-15T01:56:40.277Z,0.00
2018-02-15T01:57:40.184Z,0.00
2018-02-15T01:59:01.135Z,0.00
2018-02-15T01:59:40.079Z,0.00
2018-02-15T02:00:39.996Z,0.00
2018-02-15T02:01:39.939Z,0.00
2018-02-15T02:02:39.892Z,0.00
2018-02-15T02:03:39.810Z,0.00
2018-02-15T02:05:00.737Z,0.00
2018-02-15T02:05:39.693Z,0.00
2018-02-15T02:06:39.627Z,0.00
2018-02-15T02:07:39.593Z,0.00
2018-02-15T02:08:39.514Z,0.00
2018-02-15T02:09:39.443Z,0.00
2018-02-15T02:11:00.371Z,0.00
2018-02-15T02:11:39.316Z,0.00
2018-02-15T02:12:39.255Z,0.00
2018-02-15T02:13:39.193Z,0.00
2018-02-15T02:14:39.154Z,0.00
2018-02-15T02:15:39.070Z,0.00
2018-02-15T02:17:00.026Z,0.00
2018-02-15T02:17:38.969Z,0.00
2018-02-15T02:18:38.884Z,0.00
2018-02-15T02:19:38.827Z,0.00
2018-02-15T02:20:38.782Z,0.00
2018-02-15T02:21:38.696Z,0.00
2018-02-15T02:22:59.632Z,0.00
2018-02-15T02:23:38.601Z,0.00
2018-02-15T02:24:38.522Z,0.00
2018-02-15T02:25:38.463Z,0.00
2018-02-15T02:26:38.415Z,0.00
2018-02-15T02:27:38.328Z,0.00
2018-02-15T02:28:59.262Z,0.00
2018-02-15T02:29:38.214Z,0.00
2018-02-15T02:30:38.145Z,0.00
2018-02-15T02:31:38.085Z,0.00
2018-02-15T02:32:38.044Z,0.00
2018-02-15T02:33:37.959Z,0.00
2018-02-15T02:34:58.895Z,0.00
2018-02-15T02:35:37.866Z,0.00
2018-02-15T02:36:37.773Z,0.00
2018-02-15T02:37:37.722Z,0.00
2018-02-15T02:38:37.691Z,0.00
2018-02-15T02:39:37.587Z,0.00
2018-02-15T02:40:58.558Z,0.00
2018-02-15T02:41:37.467Z,0.00
2018-02-15T02:42:37.405Z,0.00
2018-02-15T02:43:37.352Z,0.00
2018-02-15T02:44:37.276Z,0.00
2018-02-15T02:45:37.215Z,0.00
2018-02-15T02:46:58.138Z,0.00
2018-02-15T02:47:37.088Z,0.00
2018-02-15T02:48:37.030Z,0.00
2018-02-15T02:49:37.006Z,0.00
2018-02-15T02:50:36.903Z,0.00
2018-02-15T02:51:36.863Z,0.00
2018-02-15T02:52:57.771Z,0.00
2018-02-15T02:53:36.738Z,0.00
2018-02-15T02:54:36.658Z,0.00
2018-02-15T02:55:36.597Z,0.00
2018-02-15T02:56:36.534Z,0.00
2018-02-15T02:57:36.472Z,0.00
2018-02-15T02:58:57.397Z,0.00
2018-02-15T02:59:36.374Z,0.00
2018-02-15T03:00:36.298Z,0.00
2018-02-15T03:01:36.223Z,0.00
2018-02-15T03:02:36.163Z,0.00
2018-02-15T03:03:36.105Z,0.00
2018-02-15T03:04:57.026Z,0.00
2018-02-15T03:05:35.979Z,0.00
2018-02-15T03:06:35.916Z,0.00
2018-02-15T03:07:35.853Z,0.00
2018-02-15T03:08:35.790Z,0.00
2018-02-15T03:09:35.732Z,0.00
2018-02-15T03:10:56.652Z,0.00
2018-02-15T03:11:35.626Z,0.00
2018-02-15T03:12:35.544Z,0.00
2018-02-15T03:13:35.486Z,0.00
2018-02-15T03:14:35.422Z,0.00
2018-02-15T03:15:35.357Z,0.00
2018-02-15T03:16:56.282Z,0.00
2018-02-15T03:17:35.237Z,0.00
2018-02-15T03:18:35.177Z,0.00
2018-02-15T03:19:35.149Z,0.00
2018-02-15T03:20:35.048Z,0.00
2018-02-15T03:21:34.987Z,0.00
2018-02-15T03:22:55.913Z,0.00
2018-02-15T03:23:34.863Z,0.00
2018-02-15T03:24:34.803Z,0.00
2018-02-15T03:25:34.741Z,0.00
2018-02-15T03:26:34.679Z,0.00
2018-02-15T03:27:34.613Z,0.00
2018-02-15T03:28:55.541Z,0.00
2018-02-15T03:29:34.492Z,0.00
2018-02-15T03:30:34.437Z,0.00
2018-02-15T03:31:34.370Z,0.00
2018-02-15T03:32:34.311Z,0.00
2018-02-15T03:33:34.247Z,0.00
2018-02-15T03:34:55.168Z,0.00
2018-02-15T03:35:34.124Z,0.00
2018-02-15T03:36:34.061Z,0.00
2018-02-15T03:37:33.999Z,0.00
2018-02-15T03:38:33.945Z,0.00
2018-02-15T03:39:33.873Z,0.00
2018-02-15T03:40:54.799Z,0.00
2018-02-15T03:41:33.760Z,0.00
2018-02-15T03:42:33.688Z,0.00
2018-02-15T03:43:33.625Z,0.00
2018-02-15T03:44:33.591Z,0.00
2018-02-15T03:45:33.503Z,0.00
2018-02-15T03:46:54.424Z,0.00
2018-02-15T03:47:33.380Z,0.00
2018-02-15T03:48:33.315Z,0.00
2018-02-15T03:49:33.257Z,0.00
2018-02-15T03:50:33.202Z,0.00
2018-02-15T03:51:33.132Z,0.00
2018-02-15T03:52:54.057Z,0.00
2018-02-15T03:53:33.010Z,0.00
2018-02-15T03:54:32.949Z,0.00
2018-02-15T03:55:32.882Z,0.00
2018-02-15T03:56:32.825Z,0.00
2018-02-15T03:57:32.763Z,0.00
2018-02-15T03:58:53.685Z,0.00
2018-02-15T03:59:32.644Z,0.00
2018-02-15T04:00:32.575Z,0.00
2018-02-15T04:01:32.510Z,0.00
2018-02-15T04:02:32.466Z,0.00
2018-02-15T04:03:32.390Z,0.00
2018-02-15T04:04:53.315Z,0.00
2018-02-15T04:05:32.269Z,0.00
2018-02-15T04:06:32.207Z,0.00
2018-02-15T04:07:32.147Z,0.00
2018-02-15T04:08:32.083Z,0.00
2018-02-15T04:09:32.021Z,0.00
2018-02-15T04:10:52.955Z,0.00
2018-02-15T04:11:31.905Z,0.00
2018-02-15T04:12:31.834Z,0.00
2018-02-15T04:13:31.768Z,0.00
2018-02-15T04:14:31.718Z,0.00
2018-02-15T04:15:31.649Z,0.00
2018-02-15T04:16:52.588Z,0.00
2018-02-15T04:17:31.530Z,0.00
2018-02-15T04:18:31.465Z,0.00
2018-02-15T04:19:31.396Z,0.00
2018-02-15T04:20:31.342Z,0.00
2018-02-15T04:21:31.281Z,0.00
2018-02-15T04:22:52.215Z,0.00
2018-02-15T04:23:31.163Z,0.00
2018-02-15T04:24:31.110Z,0.00
2018-02-15T04:25:31.043Z,0.00
2018-02-15T04:26:30.976Z,0.00
2018-02-15T04:27:30.926Z,0.00
2018-02-15T04:28:51.839Z,0.00
2018-02-15T04:29:30.790Z,0.00
2018-02-15T04:30:30.724Z,0.00
2018-02-15T04:31:30.670Z,0.00
2018-02-15T04:32:30.602Z,0.00
2018-02-15T04:33:30.533Z,0.00
2018-02-15T04:34:51.457Z,0.00
2018-02-15T04:35:30.418Z,0.00
2018-02-15T04:36:30.356Z,0.00
2018-02-15T04:37:30.301Z,0.00
2018-02-15T04:38:30.234Z,0.00
2018-02-15T04:39:30.173Z,0.00
2018-02-15T04:40:51.082Z,0.00
2018-02-15T04:41:30.056Z,0.00
2018-02-15T04:42:29.994Z,0.00
2018-02-15T04:43:29.913Z,0.00
2018-02-15T04:44:29.852Z,0.00
2018-02-15T04:45:29.831Z,0.00
2018-02-15T04:46:50.710Z,0.00
2018-02-15T04:47:29.662Z,0.00
2018-02-15T04:48:29.606Z,0.00
2018-02-15T04:49:29.561Z,0.00
2018-02-15T04:50:29.478Z,0.00
2018-02-15T04:51:29.411Z,0.00
2018-02-15T04:52:50.343Z,0.00
2018-02-15T04:53:29.323Z,0.00
2018-02-15T04:54:29.251Z,0.00
2018-02-15T04:55:29.164Z,0.00
2018-02-15T04:56:29.110Z,0.00
2018-02-15T04:57:29.047Z,0.00
2018-02-15T04:58:49.968Z,0.00
2018-02-15T04:59:28.926Z,0.00
2018-02-15T05:00:28.857Z,0.00
2018-02-15T05:01:28.797Z,0.00
2018-02-15T05:02:28.754Z,0.00
2018-02-15T05:03:28.695Z,0.00
2018-02-15T05:04:49.596Z,0.00
2018-02-15T05:05:28.554Z,0.00
2018-02-15T05:06:28.494Z,0.00
2018-02-15T05:07:28.422Z,0.00
2018-02-15T05:08:28.379Z,0.00
2018-02-15T05:09:28.302Z,0.00
2018-02-15T05:10:49.224Z,0.00
2018-02-15T05:11:28.196Z,0.00
2018-02-15T05:12:28.110Z,0.00
2018-02-15T05:13:28.052Z,0.00
2018-02-15T05:14:27.987Z,0.00
2018-02-15T05:15:27.925Z,0.00
2018-02-15T05:16:48.851Z,0.00
2018-02-15T05:17:27.820Z,0.00
2018-02-15T05:18:27.740Z,0.00
2018-02-15T05:19:27.680Z,0.00
2018-02-15T05:20:27.638Z,0.00
2018-02-15T05:21:27.555Z,0.00
2018-02-15T05:22:48.483Z,0.00
2018-02-15T05:23:27.432Z,0.00
2018-02-15T05:24:27.371Z,0.00
2018-02-15T05:25:27.308Z,0.00
2018-02-15T05:26:27.251Z,0.00
2018-02-15T05:27:27.182Z,0.00
2018-02-15T05:28:48.114Z,0.00
2018-02-15T05:29:27.092Z,0.00
2018-02-15T05:30:27.000Z,0.00
2018-02-15T05:31:26.937Z,0.00
2018-02-15T05:32:26.875Z,0.00
2018-02-15T05:33:26.813Z,0.00
2018-02-15T05:34:47.739Z,0.00
2018-02-15T05:35:26.688Z,0.00
2018-02-15T05:36:26.630Z,0.00
2018-02-15T05:37:26.564Z,0.00
2018-02-15T05:38:26.503Z,0.00
2018-02-15T05:39:26.443Z,0.00
2018-02-15T05:40:47.370Z,0.00
2018-02-15T05:41:26.319Z,0.00
2018-02-15T05:42:26.256Z,0.00
2018-02-15T05:43:26.196Z,0.00
2018-02-15T05:44:26.130Z,0.00
2018-02-15T05:45:26.069Z,0.00
2018-02-15T05:46:46.997Z,0.00
2018-02-15T05:47:25.942Z,0.00
2018-02-15T05:48:25.886Z,0.00
2018-02-15T05:49:25.824Z,0.00
2018-02-15T05:50:25.762Z,0.00
2018-02-15T05:51:25.695Z,0.00
2018-02-15T05:52:46.624Z,0.00
2018-02-15T05:53:25.576Z,0.00
2018-02-15T05:54:25.517Z,0.00
2018-02-15T05:55:25.453Z,0.00
2018-02-15T05:56:25.388Z,0.00
2018-02-15T05:57:25.324Z,0.00
2018-02-15T05:58:46.253Z,0.00
2018-02-15T05:59:25.202Z,0.00
2018-02-15T06:00:25.140Z,4.00
2018-02-15T06:01:25.091Z,4.00
2018-02-15T06:02:25.016Z,4.00
2018-02-15T06:03:24.959Z,0.00
2018-02-15T06:04:45.887Z,4.00
2018-02-15T06:05:24.833Z,4.00
2018-02-15T06:06:24.772Z,4.00
2018-02-15T06:07:24.708Z,8.00
2018-02-15T06:08:24.650Z,8.00
2018-02-15T06:09:24.588Z,8.00
2018-02-15T06:10:45.517Z,8.00
2018-02-15T06:11:24.468Z,12.00
2018-02-15T06:12:24.408Z,12.00
2018-02-15T06:13:24.348Z,16.00
2018-02-15T06:14:24.309Z,20.00
2018-02-15T06:15:24.232Z,20.00
2018-02-15T06:16:45.175Z,24.00
2018-02-15T06:17:24.128Z,28.00
2018-02-15T06:18:24.073Z,28.00
2018-02-15T06:19:24.002Z,36.00
2018-02-15T06:20:23.946Z,40.00
2018-02-15T06:21:23.900Z,44.00
2018-02-15T06:22:44.825Z,48.00
2018-02-15T06:23:23.780Z,52.00
2018-02-15T06:24:23.739Z,56.00
2018-02-15T06:25:23.664Z,60.00
2018-02-15T06:26:23.608Z,64.00
2018-02-15T06:27:23.551Z,68.00
2018-02-15T06:28:44.486Z,72.00
2018-02-15T06:29:23.459Z,76.00
2018-02-15T06:30:23.399Z,80.00
2018-02-15T06:31:23.333Z,84.00
2018-02-15T06:32:23.297Z,88.00
2018-02-15T06:33:23.222Z,116.00
2018-02-15T06:34:44.159Z,136.00
2018-02-15T06:35:23.141Z,152.00
2018-02-15T06:36:23.061Z,160.00
2018-02-15T06:37:23.007Z,172.00
2018-02-15T06:38:22.966Z,188.00
2018-02-15T06:39:22.901Z,200.00
2018-02-15T06:40:43.882Z,208.00
2018-02-15T06:41:22.790Z,216.00
2018-02-15T06:42:22.743Z,196.00
2018-02-15T06:43:22.692Z,208.00
2018-02-15T06:44:22.635Z,220.00
2018-02-15T06:45:22.598Z,236.00
2018-02-15T06:46:43.516Z,284.00
2018-02-15T06:47:22.480Z,272.00
2018-02-15T06:48:22.422Z,292.00
2018-02-15T06:49:22.387Z,308.00
2018-02-15T06:50:22.334Z,328.00
2018-02-15T06:51:22.263Z,344.00
2018-02-15T06:52:43.202Z,360.00
2018-02-15T06:53:22.158Z,380.00
2018-02-15T06:54:22.120Z,396.00
2018-02-15T06:55:22.060Z,412.00
2018-02-15T06:56:21.997Z,424.00
2018-02-15T06:57:21.957Z,436.00
2018-02-15T06:58:42.898Z,444.00
2018-02-15T06:59:21.847Z,460.00
2018-02-15T07:00:21.791Z,472.00
2018-02-15T07:01:21.742Z,496.00
2018-02-15T07:02:21.690Z,520.00
2018-02-15T07:03:21.636Z,552.00
2018-02-15T07:04:42.570Z,600.00
2018-02-15T07:05:21.529Z,624.00
2018-02-15T07:06:21.480Z,632.00
2018-02-15T07:07:21.421Z,632.00
2018-02-15T07:08:21.402Z,632.00
2018-02-15T07:09:21.335Z,640.00
2018-02-15T07:10:42.258Z,652.00
2018-02-15T07:11:21.219Z,680.00
2018-02-15T07:12:21.164Z,716.00
2018-02-15T07:13:21.123Z,756.00
2018-02-15T07:14:21.061Z,800.00
2018-02-15T07:15:21.016Z,844.00
2018-02-15T07:16:41.953Z,880.00
2018-02-15T07:17:20.914Z,912.00
2018-02-15T07:18:20.871Z,940.00
2018-02-15T07:19:20.800Z,964.00
2018-02-15T07:20:20.774Z,992.00
2018-02-15T07:21:20.692Z,1016.00
2018-02-15T07:22:41.632Z,1036.00
2018-02-15T07:23:20.617Z,1056.00
2018-02-15T07:24:20.539Z,1080.00
2018-02-15T07:25:20.487Z,1092.00
2018-02-15T07:26:20.454Z,1088.00
2018-02-15T07:27:20.390Z,1076.00
2018-02-15T07:28:41.324Z,1048.00
2018-02-15T07:29:20.289Z,1024.00
2018-02-15T07:30:20.256Z,1004.00
2018-02-15T07:31:20.178Z,988.00
2018-02-15T07:32:20.126Z,988.00
2018-02-15T07:33:20.112Z,992.00
2018-02-15T07:34:41.014Z,1000.00
2018-02-15T07:35:19.973Z,1012.00
2018-02-15T07:36:19.928Z,1032.00
2018-02-15T07:37:19.877Z,1052.00
2018-02-15T07:38:19.819Z,1076.00
2018-02-15T07:39:19.765Z,1100.00
2018-02-15T07:40:40.708Z,1124.00
2018-02-15T07:41:19.664Z,1152.00
2018-02-15T07:42:19.612Z,1176.00
2018-02-15T07:43:19.577Z,1204.00
2018-02-15T07:44:19.510Z,1236.00
2018-02-15T07:45:19.457Z,1264.00
2018-02-15T07:46:40.395Z,1304.00
2018-02-15T07:47:19.378Z,1332.00
2018-02-15T07:48:19.304Z,1364.00
2018-02-15T07:49:19.254Z,1384.00
2018-02-15T07:50:19.215Z,1404.00
2018-02-15T07:51:19.152Z,1428.00
2018-02-15T07:52:40.088Z,1464.00
2018-02-15T07:53:19.049Z,1516.00
2018-02-15T07:54:19.003Z,1576.00
2018-02-15T07:55:18.943Z,1640.00
2018-02-15T07:56:18.943Z,1688.00
2018-02-15T07:57:18.859Z,1716.00
2018-02-15T07:58:39.781Z,1724.00
2018-02-15T07:59:18.747Z,1728.00
2018-02-15T08:00:18.711Z,1732.00
2018-02-15T08:01:18.638Z,1732.00
2018-02-15T08:02:18.594Z,1740.00
2018-02-15T08:03:18.572Z,1752.00
2018-02-15T08:04:39.475Z,1772.00
2018-02-15T08:05:18.437Z,1804.00
2018-02-15T08:06:18.391Z,1832.00
2018-02-15T08:07:18.335Z,1872.00
2018-02-15T08:08:18.304Z,1904.00
2018-02-15T08:09:18.242Z,1936.00
2018-02-15T08:10:39.167Z,1948.00
2018-02-15T08:11:18.129Z,1948.00
2018-02-15T08:12:18.075Z,1940.00
2018-02-15T08:13:18.034Z,1920.00
2018-02-15T08:14:18.044Z,1908.00
2018-02-15T08:15:17.934Z,1896.00
2018-02-15T08:16:38.880Z,1880.00
2018-02-15T08:17:17.820Z,1860.00
2018-02-15T08:18:17.778Z,1852.00
2018-02-15T08:19:17.718Z,1856.00
2018-02-15T08:20:17.668Z,1860.00
2018-02-15T08:21:17.616Z,1868.00
2018-02-15T08:22:38.577Z,1876.00
2018-02-15T08:23:17.556Z,1888.00
2018-02-15T08:24:17.469Z,1904.00
2018-02-15T08:25:17.434Z,1932.00
2018-02-15T08:26:17.363Z,1960.00
2018-02-15T08:27:17.315Z,2000.00
2018-02-15T08:28:38.252Z,2040.00
2018-02-15T08:29:17.213Z,2088.00
2018-02-15T08:30:17.187Z,2144.00
2018-02-15T08:31:17.106Z,2196.00
2018-02-15T08:32:17.062Z,2236.00
2018-02-15T08:33:17.037Z,2276.00
2018-02-15T08:34:38.000Z,2316.00
2018-02-15T08:35:16.950Z,2372.00
2018-02-15T08:36:16.919Z,2432.00
2018-02-15T08:37:16.858Z,2480.00
2018-02-15T08:38:16.762Z,2520.00
2018-02-15T08:39:16.700Z,2556.00
2018-02-15T08:40:37.673Z,2600.00
2018-02-15T08:41:16.607Z,2640.00
2018-02-15T08:42:16.548Z,2692.00
2018-02-15T08:43:16.497Z,2744.00
2018-02-15T08:44:16.445Z,2796.00
2018-02-15T08:45:16.397Z,2848.00
2018-02-15T08:46:37.334Z,2900.00
2018-02-15T08:47:16.302Z,2960.00
2018-02-15T08:48:16.250Z,3012.00
2018-02-15T08:49:16.194Z,3064.00
2018-02-15T08:50:16.150Z,3100.00
2018-02-15T08:51:16.120Z,3128.00
2018-02-15T08:52:37.032Z,3144.00
2018-02-15T08:53:15.985Z,3116.00
2018-02-15T08:54:15.947Z,3108.00
2018-02-15T08:55:15.885Z,3084.00
2018-02-15T08:56:15.832Z,3032.00
2018-02-15T08:57:15.796Z,2980.00
2018-02-15T08:58:36.725Z,2960.00
2018-02-15T08:59:15.680Z,2972.00
2018-02-15T09:00:15.630Z,3008.00
2018-02-15T09:01:15.593Z,3060.00
2018-02-15T09:02:15.528Z,3100.00
2018-02-15T09:03:15.491Z,3120.00
2018-02-15T09:04:36.428Z,3136.00
2018-02-15T09:05:15.379Z,3164.00
2018-02-15T09:06:15.342Z,3192.00
2018-02-15T09:07:15.312Z,3232.00
2018-02-15T09:08:15.229Z,3260.00
2018-02-15T09:09:15.195Z,3268.00
2018-02-15T09:10:36.128Z,3280.00
2018-02-15T09:11:15.072Z,3292.00
2018-02-15T09:12:15.083Z,3308.00
2018-02-15T09:13:14.977Z,3324.00
2018-02-15T09:14:14.920Z,3344.00
2018-02-15T09:15:14.867Z,3360.00
2018-02-15T09:16:35.810Z,3384.00
2018-02-15T09:17:14.767Z,3428.00
2018-02-15T09:18:14.717Z,3484.00
2018-02-15T09:19:14.678Z,3540.00
2018-02-15T09:20:14.621Z,3596.00
2018-02-15T09:21:14.563Z,3640.00
2018-02-15T09:22:35.503Z,3680.00
2018-02-15T09:23:14.494Z,3712.00
2018-02-15T09:24:14.427Z,3736.00
2018-02-15T09:25:14.365Z,3744.00
2018-02-15T09:26:14.322Z,3748.00
2018-02-15T09:27:14.259Z,3736.00
2018-02-15T09:28:35.202Z,3712.00
2018-02-15T09:29:14.167Z,3692.00
2018-02-15T09:30:14.107Z,3668.00
2018-02-15T09:31:14.089Z,3640.00
2018-02-15T09:32:14.007Z,3612.00
2018-02-15T09:33:14.014Z,3600.00
2018-02-15T09:34:34.897Z,3596.00
2018-02-15T09:35:13.869Z,3580.00
2018-02-15T09:36:13.835Z,3584.00
2018-02-15T09:37:13.767Z,3608.00
2018-02-15T09:38:13.738Z,3652.00
2018-02-15T09:39:13.653Z,3684.00
2018-02-15T09:40:34.597Z,3692.00
2018-02-15T09:41:13.560Z,3668.00
2018-02-15T09:42:13.502Z,3620.00
2018-02-15T09:43:13.449Z,3544.00
2018-02-15T09:44:13.417Z,3464.00
2018-02-15T09:45:13.351Z,3376.00
2018-02-15T09:46:34.307Z,3304.00
2018-02-15T09:47:13.267Z,3244.00
2018-02-15T09:48:13.197Z,3204.00
2018-02-15T09:49:13.146Z,3172.00
2018-02-15T09:50:13.102Z,3156.00
2018-02-15T09:51:13.050Z,3140.00
2018-02-15T09:52:33.991Z,3104.00
2018-02-15T09:53:12.956Z,3044.00
2018-02-15T09:54:12.898Z,2984.00
2018-02-15T09:55:12.870Z,2932.00
2018-02-15T09:56:12.815Z,2908.00
2018-02-15T09:57:12.743Z,2908.00
2018-02-15T09:58:33.683Z,2928.00
2018-02-15T09:59:12.651Z,2976.00
2018-02-15T10:00:12.628Z,3020.00
2018-02-15T10:01:12.541Z,3048.00
2018-02-15T10:02:12.509Z,3056.00
2018-02-15T10:03:12.443Z,3064.00
2018-02-15T10:04:33.399Z,3072.00
2018-02-15T10:05:12.345Z,3080.00
2018-02-15T10:06:12.319Z,3084.00
2018-02-15T10:07:12.240Z,3096.00
2018-02-15T10:08:12.203Z,3096.00
2018-02-15T10:09:12.139Z,3088.00
2018-02-15T10:10:33.079Z,3084.00
2018-02-15T10:11:12.051Z,3088.00
2018-02-15T10:12:11.988Z,3096.00
2018-02-15T10:13:11.946Z,3100.00
2018-02-15T10:14:11.898Z,3112.00
2018-02-15T10:15:11.834Z,3112.00
2018-02-15T10:16:32.778Z,3144.00
2018-02-15T10:17:11.751Z,3148.00
2018-02-15T10:18:11.688Z,3080.00
2018-02-15T10:19:11.635Z,3000.00
2018-02-15T10:20:11.597Z,2892.00
2018-02-15T10:21:11.537Z,2788.00
2018-02-15T10:22:32.472Z,2704.00
2018-02-15T10:23:11.446Z,2620.00
2018-02-15T10:24:11.382Z,2604.00
2018-02-15T10:25:11.334Z,2664.00
2018-02-15T10:26:11.282Z,2764.00
2018-02-15T10:27:11.256Z,2896.00
2018-02-15T10:28:32.170Z,2920.00
2018-02-15T10:29:11.132Z,2844.00
2018-02-15T10:30:11.087Z,2736.00
2018-02-15T10:31:11.028Z,2688.00
2018-02-15T10:32:10.990Z,2624.00
2018-02-15T10:33:10.930Z,2556.00
2018-02-15T10:34:31.874Z,2472.00
2018-02-15T10:35:10.830Z,2380.00
2018-02-15T10:36:10.786Z,2332.00
2018-02-15T10:37:10.764Z,2284.00
2018-02-15T10:38:10.685Z,2248.00
2018-02-15T10:39:10.632Z,2196.00
2018-02-15T10:40:31.564Z,2200.00
2018-02-15T10:41:10.523Z,2272.00
2018-02-15T10:42:10.517Z,2456.00
2018-02-15T10:43:10.423Z,2680.00
2018-02-15T10:44:10.372Z,2748.00
2018-02-15T10:45:10.331Z,2800.00
2018-02-15T10:46:31.262Z,2912.00
2018-02-15T10:47:10.242Z,3000.00
2018-02-15T10:48:10.186Z,3128.00
2018-02-15T10:49:10.118Z,3336.00
2018-02-15T10:50:10.064Z,3624.00
2018-02-15T10:51:10.058Z,3804.00
2018-02-15T10:52:30.957Z,3884.00
2018-02-15T10:53:09.919Z,3880.00
2018-02-15T10:54:09.874Z,3856.00
2018-02-15T10:55:09.816Z,3848.00
2018-02-15T10:56:09.761Z,3852.00
2018-02-15T10:57:09.718Z,3888.00
2018-02-15T10:58:30.651Z,3924.00
2018-02-15T10:59:09.621Z,3964.00
2018-02-15T11:00:09.556Z,4000.00
2018-02-15T11:01:09.514Z,4008.00
2018-02-15T11:02:09.455Z,4004.00
2018-02-15T11:03:09.404Z,3996.00
2018-02-15T11:04:30.371Z,3988.00
2018-02-15T11:05:09.301Z,3976.00
2018-02-15T11:06:09.249Z,3952.00
2018-02-15T11:07:09.240Z,3920.00
2018-02-15T11:08:09.156Z,3892.00
2018-02-15T11:09:09.092Z,3892.00
2018-02-15T11:10:30.044Z,3880.00
2018-02-15T11:11:09.017Z,3856.00
2018-02-15T11:12:08.940Z,3820.00
2018-02-15T11:13:08.912Z,3756.00
2018-02-15T11:14:08.889Z,3708.00
2018-02-15T11:15:08.793Z,3668.00
2018-02-15T11:16:29.778Z,3632.00
2018-02-15T11:17:08.722Z,3592.00
2018-02-15T11:18:08.639Z,3584.00
2018-02-15T11:19:08.577Z,3540.00
2018-02-15T11:20:08.524Z,3512.00
2018-02-15T11:21:08.495Z,3496.00
2018-02-15T11:22:29.430Z,3480.00
2018-02-15T11:23:08.367Z,3456.00
2018-02-15T11:24:08.322Z,3488.00
2018-02-15T11:25:08.285Z,3468.00
2018-02-15T11:26:08.245Z,3440.00
2018-02-15T11:27:08.171Z,3444.00
2018-02-15T11:28:29.093Z,3460.00
2018-02-15T11:29:08.055Z,3456.00
2018-02-15T11:30:08.007Z,3424.00
2018-02-15T11:31:07.976Z,3400.00
2018-02-15T11:32:07.903Z,3392.00
2018-02-15T11:33:07.844Z,3440.00
2018-02-15T11:34:28.810Z,3472.00
2018-02-15T11:35:07.739Z,3464.00
2018-02-15T11:36:07.699Z,3428.00
2018-02-15T11:37:07.636Z,3372.00
2018-02-15T11:38:07.581Z,3308.00
2018-02-15T11:39:07.533Z,3252.00
2018-02-15T11:40:28.472Z,3196.00
2018-02-15T11:41:07.422Z,3132.00
2018-02-15T11:42:07.368Z,3060.00
2018-02-15T11:43:07.325Z,2992.00
2018-02-15T11:44:07.276Z,2944.00
2018-02-15T11:45:07.215Z,2912.00
2018-02-15T11:46:28.149Z,2872.00
2018-02-15T11:47:07.103Z,2812.00
2018-02-15T11:48:07.061Z,2736.00
2018-02-15T11:49:06.996Z,2680.00
2018-02-15T11:50:06.945Z,2624.00
2018-02-15T11:51:06.891Z,2588.00
2018-02-15T11:52:27.840Z,2548.00
2018-02-15T11:53:06.792Z,2512.00
2018-02-15T11:54:06.728Z,2512.00
2018-02-15T11:55:06.693Z,2552.00
2018-02-15T11:56:06.639Z,2588.00
2018-02-15T11:57:06.568Z,2584.00
2018-02-15T11:58:27.505Z,2520.00
2018-02-15T11:59:06.463Z,2464.00
2018-02-15T12:00:06.423Z,2416.00
2018-02-15T12:01:06.360Z,2416.00
2018-02-15T12:02:06.300Z,2456.00
2018-02-15T12:03:06.244Z,2560.00
2018-02-15T12:04:27.179Z,2676.00
2018-02-15T12:05:06.146Z,2788.00
2018-02-15T12:06:06.090Z,2876.00
2018-02-15T12:07:06.030Z,2888.00
2018-02-15T12:08:05.972Z,2872.00
2018-02-15T12:09:05.972Z,2884.00
2018-02-15T12:10:26.864Z,2916.00
2018-02-15T12:11:05.820Z,2984.00
2018-02-15T12:12:05.759Z,3084.00
2018-02-15T12:13:05.717Z,3160.00
2018-02-15T12:14:05.651Z,3156.00
2018-02-15T12:15:05.594Z,3104.00
2018-02-15T12:16:26.570Z,3036.00
2018-02-15T12:17:05.490Z,2988.00
2018-02-15T12:18:05.491Z,3020.00
2018-02-15T12:19:05.379Z,3056.00
2018-02-15T12:20:05.324Z,3060.00
2018-02-15T12:21:05.271Z,3052.00
2018-02-15T12:22:26.212Z,3000.00
2018-02-15T12:23:05.169Z,2892.00
2018-02-15T12:24:05.102Z,2760.00
2018-02-15T12:25:05.050Z,2636.00
2018-02-15T12:26:04.999Z,2584.00
2018-02-15T12:27:04.976Z,2600.00
2018-02-15T12:28:25.896Z,2640.00
2018-02-15T12:29:04.831Z,2756.00
2018-02-15T12:30:04.780Z,2888.00
2018-02-15T12:31:04.719Z,2960.00
2018-02-15T12:32:04.678Z,2948.00
2018-02-15T12:33:04.627Z,2956.00
2018-02-15T12:34:25.555Z,2992.00
2018-02-15T12:35:04.502Z,3080.00
2018-02-15T12:36:04.447Z,3152.00
2018-02-15T12:37:04.396Z,3124.00
2018-02-15T12:38:04.352Z,3076.00
2018-02-15T12:39:04.285Z,3008.00
2018-02-15T12:40:25.218Z,2912.00
2018-02-15T12:41:04.171Z,2900.00
2018-02-15T12:42:04.123Z,2912.00